createdAt,value
2023-04-15T00:00:28.050Z,4.9028
2023-04-15T00:01:28.607Z,5.0115
2023-04-15T00:02:29.258Z,5.0046
2023-04-15T00:03:30.087Z,5.0068
2023-04-15T00:04:30.983Z,4.9743
2023-04-15T00:05:31.538Z,5.0809
2023-04-15T00:06:32.100Z,5.1921
2023-04-15T00:07:32.637Z,5.1328
2023-04-15T00:08:33.198Z,5.0837
2023-04-15T00:09:34.308Z,5.1087
2023-04-15T00:10:34.833Z,5.1541
2023-04-15T00:11:35.366Z,5.0899
2023-04-15T00:12:36.064Z,5.1112
2023-04-15T00:13:36.569Z,5.1268
2023-04-15T00:14:37.147Z,5.0526
2023-04-15T00:15:37.714Z,5.0307
2023-04-15T00:16:38.318Z,4.9768
2023-04-15T00:17:38.905Z,4.9608
2023-04-15T00:18:39.466Z,5.0429
2023-04-15T00:19:40.294Z,5.1252
2023-04-15T00:20:40.814Z,5.1803
2023-04-15T00:21:41.333Z,5.1464
2023-04-15T00:22:41.891Z,5.1105
2023-04-15T00:23:42.446Z,4.9942
2023-04-15T00:24:43.256Z,4.7286
2023-04-15T00:25:43.851Z,4.6299
2023-04-15T00:26:44.375Z,4.6623
2023-04-15T00:27:44.945Z,4.5874
2023-04-15T00:28:45.514Z,4.5492
2023-04-15T00:29:46.311Z,4.4843
2023-04-15T00:30:46.944Z,4.5382
2023-04-15T00:31:47.471Z,4.5453
2023-04-15T00:32:48.086Z,4.5308
2023-04-15T00:33:48.624Z,4.4686
2023-04-15T00:34:49.156Z,4.4444
2023-04-15T00:35:49.681Z,4.4492
2023-04-15T00:36:50.248Z,4.5340
2023-04-15T00:37:50.806Z,4.6659
2023-04-15T00:38:51.388Z,4.8046
2023-04-15T00:39:52.012Z,4.8023
2023-04-15T00:40:52.558Z,4.7735
2023-04-15T00:41:53.129Z,4.8098
2023-04-15T00:42:53.666Z,4.8426
2023-04-15T00:43:54.212Z,4.8577
2023-04-15T00:44:54.781Z,4.9578
2023-04-15T00:45:55.440Z,4.9532
2023-04-15T00:46:56.315Z,5.0008
2023-04-15T00:47:56.934Z,5.1006
2023-04-15T00:48:57.836Z,5.1926
2023-04-15T00:49:58.406Z,5.2005
2023-04-15T00:50:58.973Z,5.2276
2023-04-15T00:51:59.728Z,5.2487
2023-04-15T00:53:00.313Z,5.2854
2023-04-15T00:54:00.850Z,5.2964
2023-04-15T00:55:01.445Z,5.2506
2023-04-15T00:56:02.011Z,5.1880
2023-04-15T00:57:02.667Z,5.1328
2023-04-15T00:59:06.310Z,5.0623
2023-04-15T00:59:06.310Z,5.1147
2023-04-15T01:00:06.921Z,5.0792
2023-04-15T01:01:09.115Z,5.1854
2023-04-15T01:02:09.749Z,5.1898
2023-04-15T01:07:13.785Z,5.1858
2023-04-15T01:07:13.785Z,5.3490
2023-04-15T01:10:53.283Z,5.1514
2023-04-15T01:10:53.283Z,5.2116
2023-04-15T01:11:47.022Z,5.1046
2023-04-15T01:12:47.577Z,5.0721
2023-04-15T01:13:48.294Z,5.0281
2023-04-15T01:14:48.382Z,4.9876
2023-04-15T01:15:49.021Z,4.9897
2023-04-15T01:16:49.829Z,4.9920
2023-04-15T01:17:50.414Z,4.9876
2023-04-15T01:18:50.947Z,4.9633
2023-04-15T01:19:51.501Z,4.9182
2023-04-15T01:20:52.034Z,4.8491
2023-04-15T01:21:52.697Z,4.8612
2023-04-15T01:22:53.180Z,4.8384
2023-04-15T01:23:53.734Z,4.8290
2023-04-15T01:24:54.473Z,4.8219
2023-04-15T01:25:55.019Z,4.8202
2023-04-15T01:26:55.604Z,4.8288
2023-04-15T01:28:10.865Z,4.8384
2023-04-15T01:28:57.291Z,4.8444
2023-04-15T01:29:57.891Z,4.8968
2023-04-15T01:30:58.391Z,5.2532
2023-04-15T01:31:59.052Z,5.1788
2023-04-15T01:32:59.640Z,5.1654
2023-04-15T01:34:00.207Z,5.1852
2023-04-15T01:35:00.717Z,5.2487
2023-04-15T01:36:01.249Z,5.3088
2023-04-15T01:37:01.881Z,5.3641
2023-04-15T01:38:02.461Z,5.3841
2023-04-15T01:39:03.099Z,5.4229
2023-04-15T01:40:03.727Z,5.4120
2023-04-15T01:41:04.301Z,5.3926
2023-04-15T01:42:04.827Z,5.3775
2023-04-15T01:43:05.398Z,5.3255
2023-04-15T01:44:05.929Z,5.2890
2023-04-15T01:45:06.468Z,5.2636
2023-04-15T01:46:06.998Z,5.2441
2023-04-15T01:47:07.546Z,5.2001
2023-04-15T01:48:08.138Z,5.2334
2023-04-15T01:49:08.937Z,5.2682
2023-04-15T01:50:09.462Z,5.3443
2023-04-15T01:51:10.043Z,5.3242
2023-04-15T01:52:10.583Z,5.2898
2023-04-15T01:53:11.154Z,5.2446
2023-04-15T01:54:12.300Z,5.1615
2023-04-15T01:55:12.858Z,5.1222
2023-04-15T01:56:15.283Z,5.0204
2023-04-15T01:57:15.104Z,4.9325
2023-04-15T01:58:15.592Z,4.8956
2023-04-15T01:59:16.326Z,4.8883
2023-04-15T02:00:16.844Z,4.8894
2023-04-15T02:01:17.431Z,4.8923
2023-04-15T02:02:17.987Z,4.9064
2023-04-15T02:03:18.640Z,4.9174
2023-04-15T02:04:20.768Z,4.9303
2023-04-15T02:05:24.807Z,4.9769
2023-04-15T02:06:25.359Z,5.0098
2023-04-15T02:07:25.884Z,5.0226
2023-04-15T02:08:26.420Z,5.0443
2023-04-15T02:09:26.965Z,5.0946
2023-04-15T02:10:27.539Z,5.0828
2023-04-15T02:11:28.301Z,5.0643
2023-04-15T02:12:28.809Z,5.0324
2023-04-15T02:13:29.356Z,5.0377
2023-04-15T02:14:29.858Z,5.0629
2023-04-15T02:15:30.381Z,5.0517
2023-04-15T02:16:30.983Z,5.0493
2023-04-15T02:17:31.526Z,5.0135
2023-04-15T02:18:32.032Z,5.0217
2023-04-15T02:19:32.556Z,5.0310
2023-04-15T02:20:33.089Z,5.0181
2023-04-15T02:21:34.258Z,5.0200
2023-04-15T02:22:34.877Z,5.0525
2023-04-15T02:23:35.438Z,5.0536
2023-04-15T02:24:35.931Z,5.0756
2023-04-15T02:25:36.453Z,5.0662
2023-04-15T02:26:37.013Z,4.9898
2023-04-15T02:27:37.546Z,4.9388
2023-04-15T02:28:38.077Z,4.9406
2023-04-15T02:29:38.665Z,4.8486
2023-04-15T02:30:39.195Z,4.7888
2023-04-15T02:31:40.015Z,4.7833
2023-04-15T02:32:40.594Z,4.8107
2023-04-15T02:33:41.105Z,4.8305
2023-04-15T02:34:41.660Z,4.8585
2023-04-15T02:35:42.233Z,4.8640
2023-04-15T02:36:42.807Z,4.8170
2023-04-15T02:37:43.434Z,4.9699
2023-04-15T02:38:44.055Z,4.9944
2023-04-15T02:39:44.582Z,5.0239
2023-04-15T02:40:45.142Z,4.9926
2023-04-15T02:41:45.977Z,5.0079
2023-04-15T02:42:46.581Z,5.0520
2023-04-15T02:43:47.112Z,5.0600
2023-04-15T02:44:47.680Z,5.0176
2023-04-15T02:45:48.398Z,4.9567
2023-04-15T02:46:49.094Z,4.9428
2023-04-15T02:47:49.707Z,4.9460
2023-04-15T02:48:50.485Z,4.9297
2023-04-15T02:49:51.002Z,4.9496
2023-04-15T02:50:52.048Z,4.9630
2023-04-15T02:51:52.857Z,5.0220
2023-04-15T02:52:53.385Z,4.9593
2023-04-15T02:53:53.973Z,4.9593
2023-04-15T02:54:54.530Z,4.9454
2023-04-15T02:55:55.065Z,4.9188
2023-04-15T02:56:55.814Z,4.9183
2023-04-15T02:57:56.365Z,4.9183
2023-04-15T02:58:56.960Z,4.8843
2023-04-15T02:59:57.454Z,4.9205
2023-04-15T03:00:57.998Z,4.9670
2023-04-15T03:01:58.549Z,4.9256
2023-04-15T03:02:59.215Z,4.9111
2023-04-15T03:03:59.904Z,4.9257
2023-04-15T03:05:00.425Z,4.9906
2023-04-15T03:06:00.943Z,4.9630
2023-04-15T03:07:01.487Z,4.9914
2023-04-15T03:08:02.032Z,4.9948
2023-04-15T03:09:02.731Z,5.0195
2023-04-15T03:10:03.324Z,5.0021
2023-04-15T03:11:03.895Z,4.9831
2023-04-15T03:12:04.421Z,4.9741
2023-04-15T03:13:04.986Z,4.9505
2023-04-15T03:14:05.547Z,4.9499
2023-04-15T03:15:06.083Z,4.9223
2023-04-15T03:16:06.718Z,4.9430
2023-04-15T03:17:07.275Z,4.9832
2023-04-15T03:18:07.928Z,5.0008
2023-04-15T03:19:08.484Z,5.0269
2023-04-15T03:20:09.061Z,5.0542
2023-04-15T03:21:09.563Z,5.0845
2023-04-15T03:22:10.122Z,5.0814
2023-04-15T03:23:10.650Z,5.0460
2023-04-15T03:24:11.219Z,5.0270
2023-04-15T03:25:11.748Z,5.0234
2023-04-15T03:26:12.300Z,5.0644
2023-04-15T03:27:12.804Z,5.0954
2023-04-15T03:28:13.345Z,5.1485
2023-04-15T03:29:15.424Z,5.1181
2023-04-15T03:30:15.935Z,5.1251
2023-04-15T03:31:16.828Z,5.1343
2023-04-15T03:32:17.339Z,5.1299
2023-04-15T03:33:17.890Z,5.1789
2023-04-15T03:34:18.442Z,5.1557
2023-04-15T03:35:19.012Z,5.1543
2023-04-15T03:36:19.541Z,5.1386
2023-04-15T03:37:20.054Z,5.1384
2023-04-15T03:38:20.621Z,5.1954
2023-04-15T03:39:21.174Z,5.2259
2023-04-15T03:40:21.706Z,5.2424
2023-04-15T03:41:22.500Z,5.2325
2023-04-15T03:42:23.003Z,5.2072
2023-04-15T03:43:23.574Z,5.1492
2023-04-15T03:44:24.129Z,5.2344
2023-04-15T03:45:24.690Z,5.2191
2023-04-15T03:46:25.487Z,5.2044
2023-04-15T03:47:25.991Z,5.1799
2023-04-15T03:48:26.516Z,5.1835
2023-04-15T03:49:27.076Z,5.1789
2023-04-15T03:50:27.593Z,5.1745
2023-04-15T03:51:28.135Z,5.2311
2023-04-15T03:52:28.697Z,5.2226
2023-04-15T03:53:29.288Z,5.2168
2023-04-15T03:54:29.833Z,5.1946
2023-04-15T03:55:30.361Z,5.1711
2023-04-15T03:56:31.126Z,5.1503
2023-04-15T03:57:31.692Z,5.1791
2023-04-15T03:58:32.282Z,5.1373
2023-04-15T03:59:32.850Z,5.1072
2023-04-15T04:00:33.401Z,5.1012
2023-04-15T04:01:34.021Z,5.1227
2023-04-15T04:02:34.612Z,5.1598
2023-04-15T04:03:35.357Z,5.1230
2023-04-15T04:04:36.056Z,5.1328
2023-04-15T04:05:36.572Z,5.1634
2023-04-15T04:06:37.109Z,5.1830
2023-04-15T04:07:37.652Z,5.1535
2023-04-15T04:08:38.283Z,5.1472
2023-04-15T04:09:38.809Z,5.1229
2023-04-15T04:10:39.402Z,5.1357
2023-04-15T04:11:40.262Z,5.1580
2023-04-15T04:12:40.769Z,5.1656
2023-04-15T04:13:41.394Z,5.1629
2023-04-15T04:14:41.934Z,5.1951
2023-04-15T04:15:42.480Z,5.2147
2023-04-15T04:16:44.886Z,5.2014
2023-04-15T04:17:45.406Z,5.2482
2023-04-15T04:18:45.984Z,5.2292
2023-04-15T04:19:46.554Z,5.2622
2023-04-15T04:20:47.102Z,5.2507
2023-04-15T04:21:47.872Z,5.2118
2023-04-15T04:22:48.427Z,5.1967
2023-04-15T04:23:49.017Z,5.1785
2023-04-15T04:24:49.538Z,5.1964
2023-04-15T04:25:50.076Z,5.3114
2023-04-15T04:26:50.609Z,5.3723
2023-04-15T04:27:51.172Z,5.2964
2023-04-15T04:28:51.918Z,5.2570
2023-04-15T04:29:52.478Z,5.2187
2023-04-15T04:30:52.997Z,5.2623
2023-04-15T04:31:53.630Z,5.2152
2023-04-15T04:32:54.191Z,5.2790
2023-04-15T04:33:54.718Z,5.3071
2023-04-15T04:34:55.246Z,5.4320
2023-04-15T04:35:55.778Z,5.2930
2023-04-15T04:36:56.353Z,5.2496
2023-04-15T04:37:56.907Z,5.3839
2023-04-15T04:38:57.441Z,5.4343
2023-04-15T04:39:57.957Z,5.4895
2023-04-15T04:40:58.463Z,5.3852
2023-04-15T04:41:59.244Z,5.3715
2023-04-15T04:42:59.807Z,5.3377
2023-04-15T04:44:00.353Z,5.3657
2023-04-15T04:45:00.892Z,5.3780
2023-04-15T04:46:01.481Z,5.3597
2023-04-15T04:47:02.072Z,5.3750
2023-04-15T04:48:02.759Z,5.4276
2023-04-15T04:49:03.770Z,5.5338
2023-04-15T04:50:04.359Z,5.3439
2023-04-15T04:51:04.910Z,5.2897
2023-04-15T04:52:05.444Z,5.2817
2023-04-15T04:53:05.974Z,5.3060
2023-04-15T04:54:06.787Z,5.3509
2023-04-15T04:55:07.337Z,5.2986
2023-04-15T04:56:07.872Z,5.2638
2023-04-15T04:57:08.423Z,5.3121
2023-04-15T04:58:09.008Z,5.2380
2023-04-15T04:59:09.557Z,5.2102
2023-04-15T05:00:10.142Z,5.3753
2023-04-15T05:01:10.781Z,5.4991
2023-04-15T05:02:11.341Z,5.5445
2023-04-15T05:03:12.148Z,5.4460
2023-04-15T05:04:13.182Z,5.3530
2023-04-15T05:05:13.768Z,5.3550
2023-04-15T05:06:14.320Z,5.3329
2023-04-15T05:07:14.898Z,5.3153
2023-04-15T05:08:15.507Z,5.2879
2023-04-15T05:09:16.378Z,5.2879
2023-04-15T05:10:16.957Z,5.3338
2023-04-15T05:11:17.467Z,5.3519
2023-04-15T05:12:17.988Z,5.3340
2023-04-15T05:13:18.545Z,5.3131
2023-04-15T05:14:19.138Z,5.3070
2023-04-15T05:15:19.679Z,5.3104
2023-04-15T05:16:20.295Z,5.3602
2023-04-15T05:17:20.903Z,5.3665
2023-04-15T05:18:21.447Z,5.4345
2023-04-15T05:19:22.012Z,5.5578
2023-04-15T05:20:22.547Z,5.5413
2023-04-15T05:21:23.079Z,5.4639
2023-04-15T05:22:23.634Z,5.4458
2023-04-15T05:23:24.517Z,5.4521
2023-04-15T05:24:25.066Z,5.4457
2023-04-15T05:25:25.584Z,5.4632
2023-04-15T05:26:26.143Z,5.5212
2023-04-15T05:27:26.725Z,5.5091
2023-04-15T05:28:27.271Z,5.5240
2023-04-15T05:29:27.817Z,5.4885
2023-04-15T05:30:28.348Z,5.5861
2023-04-15T05:31:29.209Z,5.6153
2023-04-15T05:32:29.840Z,5.5877
2023-04-15T05:33:30.416Z,5.5617
2023-04-15T05:34:31.035Z,5.5049
2023-04-15T05:35:31.603Z,5.5311
2023-04-15T05:36:32.189Z,5.6800
2023-04-15T05:37:32.764Z,5.6404
2023-04-15T05:38:33.556Z,5.7870
2023-04-15T05:39:34.163Z,5.8082
2023-04-15T05:40:34.755Z,5.8475
2023-04-15T05:41:35.336Z,5.7285
2023-04-15T05:42:35.899Z,5.6612
2023-04-15T05:43:36.521Z,5.7787
2023-04-15T05:44:37.153Z,5.7744
2023-04-15T05:45:37.729Z,5.8072
2023-04-15T05:46:38.583Z,5.7373
2023-04-15T05:47:39.259Z,5.7575
2023-04-15T05:48:39.895Z,5.8085
2023-04-15T05:49:40.492Z,5.9635
2023-04-15T05:50:41.071Z,6.0477
2023-04-15T05:51:41.733Z,5.9470
2023-04-15T05:52:42.277Z,6.0642
2023-04-15T05:53:42.851Z,6.1891
2023-04-15T05:54:43.438Z,6.1514
2023-04-15T05:55:44.040Z,5.9987
2023-04-15T05:56:44.617Z,6.0091
2023-04-15T05:57:45.227Z,6.0058
2023-04-15T05:58:46.017Z,6.1052
2023-04-15T05:59:46.562Z,6.0325
2023-04-15T06:00:47.149Z,6.1965
2023-04-15T06:01:47.981Z,6.0462
2023-04-15T06:02:48.661Z,6.0082
2023-04-15T06:03:49.445Z,5.9279
2023-04-15T06:04:50.186Z,5.9163
2023-04-15T06:05:50.688Z,5.8896
2023-04-15T06:06:51.256Z,5.9635
2023-04-15T06:07:51.823Z,5.9923
2023-04-15T06:08:52.458Z,5.9621
2023-04-15T06:09:53.040Z,6.0708
2023-04-15T06:10:53.622Z,6.2320
2023-04-15T06:11:54.310Z,6.3322
2023-04-15T06:12:54.838Z,6.4943
2023-04-15T06:13:55.414Z,6.7675
2023-04-15T06:14:56.022Z,6.8759
2023-04-15T06:15:56.605Z,6.8353
2023-04-15T06:16:57.247Z,6.6908
2023-04-15T06:17:57.830Z,7.0381
2023-04-15T06:18:58.436Z,6.8606
2023-04-15T06:19:59.016Z,6.9340
2023-04-15T06:20:59.622Z,6.6376
2023-04-15T06:22:00.228Z,6.6844
2023-04-15T06:23:00.823Z,6.7961
2023-04-15T06:24:01.473Z,6.8067
2023-04-15T06:25:02.116Z,6.7599
2023-04-15T06:26:02.712Z,6.7891
2023-04-15T06:27:03.312Z,6.8625
2023-04-15T06:28:03.898Z,6.9866
2023-04-15T06:29:04.483Z,7.1410
2023-04-15T06:30:05.088Z,7.1478
2023-04-15T06:31:07.269Z,7.2813
2023-04-15T06:32:07.827Z,7.2954
2023-04-15T06:33:08.467Z,7.4696
2023-04-15T06:34:09.105Z,7.7715
2023-04-15T06:35:09.698Z,7.7926
2023-04-15T06:36:10.355Z,7.6344
2023-04-15T06:37:10.904Z,7.5474
2023-04-15T06:38:11.503Z,7.3826
2023-04-15T06:39:12.079Z,7.3067
2023-04-15T06:40:12.675Z,7.5208
2023-04-15T06:41:13.256Z,7.5211
2023-04-15T06:42:13.848Z,7.5321
2023-04-15T06:43:14.477Z,7.8463
2023-04-15T06:44:15.080Z,7.7005
2023-04-15T06:45:15.701Z,7.8083
2023-04-15T06:46:16.368Z,7.5631
2023-04-15T06:47:17.017Z,7.7140
2023-04-15T06:48:17.629Z,7.6671
2023-04-15T06:49:18.237Z,7.6479
2023-04-15T06:50:18.866Z,7.6853
2023-04-15T06:51:19.457Z,7.8559
2023-04-15T06:52:20.074Z,7.7487
2023-04-15T06:53:20.624Z,7.4608
2023-04-15T06:54:21.234Z,7.6605
2023-04-15T06:55:21.828Z,7.8131
2023-04-15T06:56:22.408Z,7.7472
2023-04-15T06:57:23.017Z,7.6887
2023-04-15T06:58:23.571Z,7.7004
2023-04-15T06:59:24.145Z,7.5612
2023-04-15T07:00:24.779Z,7.6253
2023-04-15T07:01:25.390Z,7.7731
2023-04-15T07:02:26.127Z,7.6063
2023-04-15T07:03:26.731Z,7.6496
2023-04-15T07:04:27.335Z,7.4795
2023-04-15T07:05:27.985Z,7.5937
2023-04-15T07:06:28.625Z,7.8037
2023-04-15T07:07:29.191Z,7.8241
2023-04-15T07:08:30.025Z,7.7074
2023-04-15T07:09:30.595Z,7.9675
2023-04-15T07:10:31.190Z,7.9710
2023-04-15T07:11:31.789Z,7.8108
2023-04-15T07:12:32.365Z,7.9465
2023-04-15T07:13:32.936Z,8.0488
2023-04-15T07:14:33.520Z,8.0704
2023-04-15T07:15:34.123Z,8.3563
2023-04-15T07:16:34.770Z,8.5063
2023-04-15T07:17:35.411Z,8.2952
2023-04-15T07:18:35.993Z,8.0709
2023-04-15T07:19:36.590Z,8.0013
2023-04-15T07:20:37.232Z,8.1430
2023-04-15T07:21:38.928Z,8.0475
2023-04-15T07:22:40.522Z,8.1031
2023-04-15T07:23:41.347Z,8.2775
2023-04-15T07:24:41.922Z,8.1241
2023-04-15T07:25:42.541Z,8.0632
2023-04-15T07:26:43.105Z,8.2164
2023-04-15T07:27:43.691Z,8.2035
2023-04-15T07:28:44.307Z,8.3351
2023-04-15T07:29:44.902Z,8.2190
2023-04-15T07:30:45.499Z,8.1912
2023-04-15T07:31:46.119Z,7.9996
2023-04-15T07:32:46.758Z,7.9105
2023-04-15T07:33:47.303Z,8.2245
2023-04-15T07:34:47.908Z,8.0874
2023-04-15T07:35:48.530Z,7.9093
2023-04-15T07:36:49.116Z,7.7216
2023-04-15T07:37:49.912Z,7.9182
2023-04-15T07:38:50.495Z,7.9864
2023-04-15T07:39:51.124Z,7.9493
2023-04-15T07:40:51.865Z,7.4190
2023-04-15T07:41:52.438Z,7.1094
2023-04-15T07:42:53.009Z,7.0488
2023-04-15T07:43:53.685Z,6.9869
2023-04-15T07:44:54.259Z,7.0587
2023-04-15T07:45:55.114Z,7.2103
2023-04-15T07:46:55.659Z,7.4809
2023-04-15T07:47:56.381Z,7.3681
2023-04-15T07:48:56.986Z,7.4949
2023-04-15T07:49:57.616Z,7.5857
2023-04-15T07:50:58.226Z,7.5430
2023-04-15T07:51:58.826Z,7.3493
2023-04-15T07:52:59.665Z,7.3055
2023-04-15T07:54:00.241Z,7.4589
2023-04-15T07:55:00.874Z,7.6025
2023-04-15T07:56:01.733Z,7.5973
2023-04-15T07:57:02.330Z,7.5551
2023-04-15T07:58:03.041Z,7.7758
2023-04-15T07:59:03.805Z,7.8818
2023-04-15T08:00:04.566Z,8.0811
2023-04-15T08:01:05.171Z,8.0626
2023-04-15T08:02:05.932Z,7.7696
2023-04-15T08:03:06.573Z,8.0227
2023-04-15T08:04:07.377Z,7.6598
2023-04-15T08:05:07.982Z,7.4288
2023-04-15T08:06:08.577Z,7.2601
2023-04-15T08:07:09.157Z,7.3677
2023-04-15T08:08:09.751Z,7.5397
2023-04-15T08:09:10.357Z,7.6993
2023-04-15T08:10:11.112Z,7.8606
2023-04-15T08:11:11.921Z,7.8196
2023-04-15T08:12:12.505Z,7.9818
2023-04-15T08:13:13.106Z,8.2919
2023-04-15T08:14:13.689Z,8.3232
2023-04-15T08:15:14.296Z,8.3533
2023-04-15T08:16:14.866Z,8.5797
2023-04-15T08:17:15.627Z,8.8506
2023-04-15T08:18:16.277Z,8.6816
2023-04-15T08:19:16.872Z,8.7254
2023-04-15T08:20:17.503Z,8.3004
2023-04-15T08:21:18.165Z,7.9525
2023-04-15T08:22:20.105Z,8.1702
2023-04-15T08:23:22.175Z,7.9339
2023-04-15T08:24:22.818Z,8.0195
2023-04-15T08:25:23.430Z,7.9532
2023-04-15T08:26:24.022Z,8.0874
2023-04-15T08:27:24.608Z,8.2313
2023-04-15T08:28:25.199Z,8.3664
2023-04-15T08:29:25.838Z,8.8453
2023-04-15T08:30:26.666Z,9.2641
2023-04-15T08:31:27.403Z,9.6024
2023-04-15T08:32:27.985Z,9.5086
2023-04-15T08:33:28.904Z,9.4500
2023-04-15T08:34:29.484Z,9.3781
2023-04-15T08:35:30.158Z,9.4568
2023-04-15T08:36:30.759Z,9.7413
2023-04-15T08:37:31.551Z,9.7094
2023-04-15T08:38:32.167Z,9.7055
2023-04-15T08:39:32.835Z,9.7600
2023-04-15T08:40:33.689Z,9.0952
2023-04-15T08:41:34.275Z,8.7547
2023-04-15T08:42:34.901Z,8.4725
2023-04-15T08:43:35.526Z,8.5087
2023-04-15T08:44:36.102Z,8.5674
2023-04-15T08:45:36.692Z,8.5300
2023-04-15T08:46:37.371Z,8.8384
2023-04-15T08:47:38.204Z,9.3731
2023-04-15T08:48:38.817Z,9.6319
2023-04-15T08:49:39.481Z,9.7077
2023-04-15T08:50:40.124Z,9.5463
2023-04-15T08:51:40.731Z,9.4298
2023-04-15T08:52:41.555Z,9.3574
2023-04-15T08:53:42.179Z,9.4849
2023-04-15T08:54:42.779Z,9.6241
2023-04-15T08:55:43.567Z,9.8585
2023-04-15T08:56:44.379Z,9.7601
2023-04-15T08:57:44.953Z,9.6137
2023-04-15T08:58:45.508Z,10.1041
2023-04-15T08:59:46.086Z,9.9976
2023-04-15T09:00:46.760Z,10.0154
2023-04-15T09:01:47.445Z,10.2046
2023-04-15T09:02:48.152Z,10.2153
2023-04-15T09:03:48.852Z,9.9921
2023-04-15T09:04:49.537Z,9.5762
2023-04-15T09:05:51.461Z,9.2589
2023-04-15T09:06:50.227Z,9.4191
2023-04-15T09:07:50.858Z,9.5690
2023-04-15T09:08:51.385Z,9.3362
2023-04-15T09:09:51.949Z,9.5592
2023-04-15T09:10:52.559Z,9.0738
2023-04-15T09:11:53.158Z,8.9384
2023-04-15T09:12:53.769Z,9.1920
2023-04-15T09:13:54.357Z,9.1987
2023-04-15T09:14:54.932Z,9.5195
2023-04-15T09:15:55.497Z,9.1993
2023-04-15T09:16:56.106Z,9.3319
2023-04-15T09:17:56.715Z,9.3018
2023-04-15T09:18:57.326Z,9.0676
2023-04-15T09:19:57.908Z,9.0713
2023-04-15T09:20:58.490Z,8.6266
2023-04-15T09:21:59.414Z,8.4755
2023-04-15T09:23:00.440Z,9.0687
2023-04-15T09:24:01.403Z,9.6722
2023-04-15T09:25:02.437Z,9.4273
2023-04-15T09:26:03.052Z,9.5727
2023-04-15T09:27:03.680Z,10.0779
2023-04-15T09:28:04.494Z,9.8534
2023-04-15T09:29:05.101Z,10.3900
2023-04-15T09:30:05.668Z,10.4216
2023-04-15T09:31:06.283Z,9.4376
2023-04-15T09:32:06.869Z,9.4482
2023-04-15T09:33:07.511Z,10.1286
2023-04-15T09:34:08.056Z,10.5651
2023-04-15T09:35:08.893Z,10.4164
2023-04-15T09:36:09.587Z,9.8797
2023-04-15T09:37:10.543Z,10.5201
2023-04-15T09:38:11.113Z,11.0593
2023-04-15T09:39:11.680Z,10.7552
2023-04-15T09:40:12.269Z,10.3457
2023-04-15T09:41:12.842Z,10.4356
2023-04-15T09:42:13.427Z,10.8268
2023-04-15T09:43:14.032Z,11.1886
2023-04-15T09:44:14.582Z,10.8246
2023-04-15T09:45:15.200Z,10.7844
2023-04-15T09:46:15.793Z,10.6974
2023-04-15T09:47:16.672Z,10.2251
2023-04-15T09:48:17.299Z,10.3561
2023-04-15T09:49:17.973Z,10.4338
2023-04-15T09:50:18.551Z,10.2307
2023-04-15T09:51:19.213Z,10.2614
2023-04-15T09:52:19.794Z,10.7664
2023-04-15T09:53:20.387Z,10.8711
2023-04-15T09:54:20.974Z,10.7417
2023-04-15T09:55:21.552Z,10.6511
2023-04-15T09:56:22.138Z,9.2884
2023-04-15T09:57:22.693Z,8.9661
2023-04-15T09:58:23.278Z,9.5250
2023-04-15T09:59:23.844Z,9.5606
2023-04-15T10:00:24.985Z,9.7713
2023-04-15T10:01:25.565Z,9.7677
2023-04-15T10:02:26.287Z,9.8919
2023-04-15T10:03:27.000Z,10.3545
2023-04-15T10:04:27.958Z,10.4483
2023-04-15T10:05:29.775Z,10.1206
2023-04-15T10:06:30.777Z,9.8113
2023-04-15T10:07:31.349Z,9.5688
2023-04-15T10:08:31.958Z,9.6368
2023-04-15T10:09:32.553Z,9.2083
2023-04-15T10:10:33.133Z,9.3572
2023-04-15T10:11:33.692Z,9.2262
2023-04-15T10:12:34.315Z,8.7663
2023-04-15T10:13:34.877Z,8.8645
2023-04-15T10:14:35.506Z,9.1508
2023-04-15T10:15:36.090Z,9.3336
2023-04-15T10:16:36.634Z,9.3930
2023-04-15T10:17:37.461Z,9.5495
2023-04-15T10:18:38.150Z,9.6962
2023-04-15T10:19:38.771Z,9.4717
2023-04-15T10:20:39.365Z,9.2801
2023-04-15T10:21:39.949Z,8.6931
2023-04-15T10:22:40.757Z,8.7551
2023-04-15T10:23:41.280Z,9.2265
2023-04-15T10:25:44.935Z,9.2524
2023-04-15T10:25:44.935Z,9.2861
2023-04-15T10:26:45.556Z,9.1612
2023-04-15T10:27:46.122Z,9.4964
2023-04-15T10:28:46.710Z,9.3608
2023-04-15T10:29:47.299Z,9.4552
2023-04-15T10:30:47.880Z,9.0415
2023-04-15T10:31:48.576Z,8.8533
2023-04-15T10:32:49.169Z,8.8538
2023-04-15T10:33:49.733Z,8.8078
2023-04-15T10:34:51.071Z,9.0569
2023-04-15T10:35:52.414Z,8.9582
2023-04-15T10:36:52.978Z,8.9962
2023-04-15T10:37:53.552Z,8.5971
2023-04-15T10:38:54.132Z,8.3422
2023-04-15T10:39:54.910Z,8.2844
2023-04-15T10:40:55.514Z,8.5271
2023-04-15T10:41:56.167Z,8.8619
2023-04-15T10:42:56.725Z,9.0313
2023-04-15T10:43:57.295Z,9.3234
2023-04-15T10:44:57.868Z,9.3101
2023-04-15T10:45:58.445Z,9.0804
2023-04-15T10:46:59.277Z,9.4361
2023-04-15T10:48:01.596Z,9.5913
2023-04-15T10:49:00.359Z,9.7436
2023-04-15T10:50:00.985Z,9.1169
2023-04-15T10:51:01.591Z,9.0517
2023-04-15T10:52:02.167Z,8.6157
2023-04-15T10:53:02.726Z,8.6664
2023-04-15T10:54:03.536Z,8.5118
2023-04-15T10:55:04.114Z,8.6499
2023-04-15T10:56:04.682Z,8.4151
2023-04-15T10:57:05.250Z,8.4572
2023-04-15T10:58:05.866Z,8.6095
2023-04-15T10:59:06.431Z,8.9380
2023-04-15T11:00:07.001Z,9.0663
2023-04-15T11:01:07.616Z,9.5217
2023-04-15T11:02:08.479Z,9.4516
2023-04-15T11:03:09.518Z,9.3998
2023-04-15T11:04:10.543Z,8.9220
2023-04-15T11:05:11.097Z,8.4771
2023-04-15T11:06:11.669Z,8.2596
2023-04-15T11:07:12.257Z,8.5589
2023-04-15T11:08:12.868Z,8.6043
2023-04-15T11:09:13.690Z,8.5351
2023-04-15T11:10:14.279Z,8.7796
2023-04-15T11:11:14.831Z,9.3391
2023-04-15T11:12:15.445Z,9.2414
2023-04-15T11:13:16.062Z,9.0277
2023-04-15T11:14:16.632Z,8.7129
2023-04-15T11:15:17.199Z,8.9094
2023-04-15T11:16:17.820Z,9.0501
2023-04-15T11:17:18.698Z,9.1254
2023-04-15T11:18:19.297Z,8.9490
2023-04-15T11:19:19.908Z,9.0288
2023-04-15T11:20:20.499Z,8.6080
2023-04-15T11:21:21.088Z,8.6186
2023-04-15T11:22:21.666Z,8.7209
2023-04-15T11:23:22.534Z,8.7949
2023-04-15T11:24:23.318Z,8.7377
2023-04-15T11:25:24.043Z,8.8348
2023-04-15T11:26:24.697Z,8.5415
2023-04-15T11:27:25.293Z,8.2030
2023-04-15T11:28:25.856Z,8.3686
2023-04-15T11:29:26.465Z,8.2768
2023-04-15T11:30:27.080Z,8.2442
2023-04-15T11:31:27.701Z,8.4185
2023-04-15T11:32:28.282Z,8.5666
2023-04-15T11:33:28.911Z,8.2437
2023-04-15T11:34:29.493Z,8.0701
2023-04-15T11:35:30.084Z,7.9236
2023-04-15T11:36:30.645Z,8.0266
2023-04-15T11:37:31.252Z,7.9591
2023-04-15T11:38:31.834Z,7.9317
2023-04-15T11:39:32.429Z,8.0202
2023-04-15T11:40:32.980Z,8.1064
2023-04-15T11:41:33.579Z,8.3704
2023-04-15T11:42:48.741Z,8.1633
2023-04-15T11:43:37.148Z,8.1494
2023-04-15T11:44:37.735Z,8.1256
2023-04-15T11:45:38.340Z,8.1171
2023-04-15T11:46:38.912Z,8.1774
2023-04-15T11:47:39.509Z,8.3701
2023-04-15T11:48:40.113Z,8.2325
2023-04-15T11:49:40.953Z,8.3728
2023-04-15T11:50:41.559Z,8.1882
2023-04-15T11:51:42.099Z,8.1637
2023-04-15T11:52:42.656Z,8.0830
2023-04-15T11:53:43.281Z,8.3803
2023-04-15T11:54:43.873Z,8.7994
2023-04-15T11:55:44.683Z,9.1106
2023-04-15T11:56:45.244Z,9.4288
2023-04-15T11:57:45.839Z,9.7540
2023-04-15T11:58:46.572Z,9.5388
2023-04-15T11:59:47.220Z,9.1885
2023-04-15T12:00:47.878Z,9.1159
2023-04-15T12:01:48.711Z,8.5091
2023-04-15T12:02:49.360Z,8.3728
2023-04-15T12:03:50.545Z,8.3863
2023-04-15T12:04:51.360Z,8.7661
2023-04-15T12:05:51.976Z,8.8769
2023-04-15T12:06:52.585Z,8.7749
2023-04-15T12:07:53.210Z,8.8930
2023-04-15T12:08:53.816Z,9.3842
2023-04-15T12:09:54.443Z,10.0088
2023-04-15T12:10:55.070Z,10.3011
2023-04-15T12:11:55.664Z,10.1607
2023-04-15T12:12:56.284Z,9.3211
2023-04-15T12:13:56.885Z,9.0927
2023-04-15T12:14:57.541Z,8.9325
2023-04-15T12:15:58.186Z,8.8667
2023-04-15T12:16:58.813Z,8.9202
2023-04-15T12:17:59.743Z,9.4475
2023-04-15T12:19:02.342Z,9.1819
2023-04-15T12:20:02.993Z,9.3157
2023-04-15T12:21:03.587Z,9.2008
2023-04-15T12:22:04.212Z,9.8134
2023-04-15T12:23:04.807Z,10.3264
2023-04-15T12:24:05.687Z,9.9679
2023-04-15T12:25:06.438Z,10.3559
2023-04-15T12:26:07.055Z,10.8297
2023-04-15T12:27:07.826Z,10.0504
2023-04-15T12:28:08.439Z,9.9395
2023-04-15T12:29:09.074Z,9.6381
2023-04-15T12:30:09.691Z,9.2658
2023-04-15T12:31:10.338Z,9.8022
2023-04-15T12:32:10.924Z,10.0063
2023-04-15T12:33:11.541Z,9.9398
2023-04-15T12:34:12.156Z,9.5366
2023-04-15T12:35:12.786Z,9.3102
2023-04-15T12:36:13.413Z,9.5331
2023-04-15T12:37:14.015Z,9.3740
2023-04-15T12:38:14.634Z,9.6048
2023-04-15T12:39:15.263Z,9.7780
2023-04-15T12:40:15.891Z,9.6806